createdAt,value
2023-02-28T00:00:19.299Z,10.95
2023-02-28T00:05:14.661Z,9.70
2023-02-28T00:10:10.124Z,10.13
2023-02-28T00:15:03.757Z,9.48
2023-02-28T00:19:57.160Z,9.32
2023-02-28T00:24:50.086Z,9.15
2023-02-28T00:29:42.804Z,10.10
2023-02-28T00:34:39.113Z,10.65
2023-02-28T00:39:32.172Z,9.88
2023-02-28T00:44:25.449Z,9.38
2023-02-28T00:49:19.851Z,8.27
2023-02-28T00:54:13.576Z,8.00
2023-02-28T00:59:07.006Z,8.07
2023-02-28T01:04:00.296Z,9.13
2023-02-28T01:08:53.286Z,8.48
2023-02-28T01:13:47.812Z,9.45
2023-02-28T01:18:40.766Z,8.73
2023-02-28T01:23:34.697Z,9.10
2023-02-28T01:28:28.200Z,9.30
2023-02-28T01:33:23.253Z,10.07
2023-02-28T01:38:22.513Z,9.30
2023-02-28T01:43:28.800Z,9.38
2023-02-28T01:48:24.339Z,9.23
2023-02-28T01:53:20.981Z,8.85
2023-02-28T01:58:13.111Z,9.30
2023-02-28T02:03:11.117Z,9.30
2023-02-28T02:08:07.408Z,8.68
2023-02-28T02:13:08.826Z,8.75
2023-02-28T02:18:27.745Z,9.52
2023-02-28T02:23:56.410Z,8.32
2023-02-28T02:29:19.049Z,9.02
2023-02-28T02:34:26.112Z,9.05
2023-02-28T02:39:31.266Z,8.50
2023-02-28T02:44:38.094Z,7.85
2023-02-28T02:49:33.268Z,10.00
2023-02-28T02:54:31.536Z,8.20
2023-02-28T02:59:25.203Z,10.23
2023-02-28T03:04:23.467Z,8.80
2023-02-28T03:09:17.908Z,10.55
2023-02-28T03:14:33.632Z,8.85
2023-02-28T03:19:38.550Z,7.95
2023-02-28T03:24:39.097Z,8.93
2023-02-28T03:29:41.577Z,8.98
2023-02-28T03:34:38.561Z,8.85
2023-02-28T03:39:57.701Z,7.53
2023-02-28T03:45:03.467Z,8.05
2023-02-28T03:50:14.876Z,8.18
2023-02-28T03:55:18.291Z,8.75
2023-02-28T04:00:22.477Z,8.85
2023-02-28T04:05:16.560Z,9.10
2023-02-28T04:10:10.241Z,9.50
2023-02-28T04:15:03.656Z,9.40
2023-02-28T04:19:58.140Z,9.05
2023-02-28T04:24:52.155Z,9.80
2023-02-28T04:29:46.026Z,9.57
2023-02-28T04:34:40.459Z,10.77
2023-02-28T04:39:38.320Z,9.57
2023-02-28T04:44:32.807Z,9.50
2023-02-28T04:49:26.499Z,10.30
2023-02-28T04:54:20.548Z,11.20
2023-02-28T04:59:14.070Z,10.27
2023-02-28T05:04:07.024Z,10.48
2023-02-28T05:09:00.470Z,9.85
2023-02-28T05:13:54.672Z,9.85
2023-02-28T05:18:47.680Z,9.48
2023-02-28T05:23:41.152Z,9.13
2023-02-28T05:28:34.739Z,10.77
2023-02-28T05:33:28.904Z,9.35
2023-02-28T05:38:22.966Z,9.00
2023-02-28T05:43:15.528Z,8.52
2023-02-28T05:48:07.569Z,11.00
2023-02-28T05:53:00.570Z,11.43
2023-02-28T05:57:54.366Z,10.48
2023-02-28T06:02:48.813Z,10.82
2023-02-28T06:07:41.975Z,9.95
2023-02-28T06:12:35.150Z,10.90
2023-02-28T06:17:28.878Z,9.00
2023-02-28T06:22:22.384Z,11.63
2023-02-28T06:27:16.282Z,10.80
2023-02-28T06:32:09.207Z,9.10
2023-02-28T06:37:03.273Z,10.45
2023-02-28T06:41:56.792Z,9.98
2023-02-28T06:46:50.454Z,10.50
2023-02-28T06:51:47.678Z,9.98
2023-02-28T06:56:40.659Z,11.68
2023-02-28T07:01:33.837Z,9.88
2023-02-28T07:06:27.899Z,11.32
2023-02-28T07:11:26.988Z,11.07
2023-02-28T07:21:15.222Z,11.35
2023-02-28T07:26:09.193Z,9.48
2023-02-28T07:31:07.152Z,10.15
2023-02-28T07:36:24.233Z,9.27
2023-02-28T07:41:18.181Z,9.35
2023-02-28T07:46:13.766Z,10.05
2023-02-28T07:51:07.637Z,10.50
2023-02-28T07:56:03.562Z,9.68
2023-02-28T08:00:57.336Z,10.10
2023-02-28T08:05:50.528Z,12.23
2023-02-28T08:10:42.990Z,11.10
2023-02-28T08:15:36.316Z,11.50
2023-02-28T08:20:29.798Z,12.23
2023-02-28T08:25:23.627Z,11.27
2023-02-28T08:30:18.183Z,10.68
2023-02-28T08:35:12.249Z,11.20
2023-02-28T08:40:05.660Z,10.68
2023-02-28T08:44:58.407Z,11.27
2023-02-28T08:49:52.049Z,11.05
2023-02-28T08:54:45.344Z,10.65
2023-02-28T08:59:37.921Z,10.63
2023-02-28T09:04:32.043Z,10.38
2023-02-28T09:09:25.289Z,11.13
2023-02-28T09:14:19.116Z,9.35
2023-02-28T09:19:13.622Z,10.63
2023-02-28T09:24:08.300Z,10.88
2023-02-28T09:29:01.558Z,11.48
2023-02-28T09:33:57.453Z,11.52
2023-02-28T09:38:52.429Z,10.60
2023-02-28T09:43:48.418Z,10.43
2023-02-28T09:48:44.456Z,12.15
2023-02-28T09:53:41.056Z,11.65
2023-02-28T09:59:02.049Z,11.48
2023-02-28T10:04:07.709Z,11.35
2023-02-28T10:09:06.285Z,12.63
2023-02-28T10:14:03.670Z,11.33
2023-02-28T10:19:05.800Z,12.88
2023-02-28T10:24:05.323Z,13.00
2023-02-28T10:28:59.030Z,11.13
2023-02-28T10:33:52.936Z,13.13
2023-02-28T10:38:47.500Z,14.73
2023-02-28T10:43:42.252Z,13.80
2023-02-28T10:49:02.783Z,15.23
2023-02-28T10:54:03.858Z,14.30
2023-02-28T10:59:05.829Z,13.90
2023-02-28T11:03:59.493Z,12.23
2023-02-28T11:08:57.810Z,15.25
2023-02-28T11:13:54.442Z,35.05
2023-02-28T11:18:52.961Z,25.88
2023-02-28T11:23:46.264Z,12.20
2023-02-28T11:28:42.095Z,15.30
2023-02-28T11:33:55.752Z,15.23
2023-02-28T11:38:51.378Z,14.88
2023-02-28T11:44:15.106Z,14.43
2023-02-28T11:49:28.884Z,14.02
2023-02-28T11:54:39.960Z,12.63
2023-02-28T11:59:36.850Z,14.20
2023-02-28T12:04:50.116Z,14.52
2023-02-28T12:09:59.861Z,15.32
2023-02-28T12:15:22.225Z,14.75
2023-02-28T12:20:22.420Z,13.25
2023-02-28T12:25:37.466Z,12.75
2023-02-28T12:30:33.663Z,12.52
2023-02-28T12:35:42.550Z,14.45
2023-02-28T12:40:50.100Z,13.45
2023-02-28T12:46:11.455Z,11.88
2023-02-28T12:51:04.936Z,14.52
2023-02-28T12:56:11.729Z,15.25
2023-02-28T13:01:52.650Z,13.30
2023-02-28T13:11:57.369Z,12.98
2023-02-28T13:17:10.853Z,13.63
2023-02-28T13:22:04.971Z,14.70
2023-02-28T13:27:04.278Z,13.98
2023-02-28T13:32:20.989Z,14.80
2023-02-28T13:37:23.181Z,22.20
2023-02-28T13:42:40.922Z,16.85
2023-02-28T13:47:44.694Z,21.05
2023-02-28T13:52:50.911Z,17.10
2023-02-28T13:58:07.230Z,17.45
2023-02-28T14:03:18.679Z,24.00
2023-02-28T14:08:25.287Z,18.85
2023-02-28T14:13:27.477Z,19.85
2023-02-28T14:18:25.736Z,19.38
2023-02-28T14:23:43.257Z,19.58
2023-02-28T14:28:44.970Z,20.13
2023-02-28T14:33:59.228Z,18.85
2023-02-28T14:39:15.653Z,20.13
2023-02-28T14:44:26.597Z,20.27
2023-02-28T14:49:32.918Z,19.98
2023-02-28T14:54:25.155Z,19.52
2023-02-28T14:59:29.831Z,19.00
2023-02-28T15:04:28.574Z,19.48
2023-02-28T15:09:22.285Z,19.25
2023-02-28T15:14:36.261Z,20.80
2023-02-28T15:19:32.381Z,19.50
2023-02-28T15:24:34.572Z,19.70
2023-02-28T15:29:31.025Z,25.42
2023-02-28T15:34:37.082Z,19.70
2023-02-28T15:39:44.589Z,16.77
2023-02-28T15:44:38.620Z,16.98
2023-02-28T15:49:44.894Z,19.17
2023-02-28T15:54:39.085Z,16.02
2023-02-28T15:59:33.227Z,15.30
2023-02-28T16:04:31.082Z,16.17
2023-02-28T16:09:24.686Z,16.85
2023-02-28T16:14:21.967Z,16.63
2023-02-28T16:19:14.704Z,15.65
2023-02-28T16:24:08.987Z,18.23
2023-02-28T16:29:05.785Z,17.33
2023-02-28T16:33:59.038Z,17.05
2023-02-28T16:38:52.209Z,16.58
2023-02-28T16:43:45.554Z,18.70
2023-02-28T16:48:44.135Z,18.20
2023-02-28T16:53:36.860Z,19.23
2023-02-28T16:58:30.204Z,18.65
2023-02-28T17:03:33.085Z,18.10
2023-02-28T17:08:27.958Z,18.42
2023-02-28T17:13:21.258Z,17.95
2023-02-28T17:18:20.628Z,16.23
2023-02-28T17:28:07.650Z,16.98
2023-02-28T17:33:01.126Z,17.92
2023-02-28T17:37:54.187Z,21.40
2023-02-28T17:42:47.869Z,22.60
2023-02-28T17:47:40.394Z,18.73
2023-02-28T17:52:38.098Z,20.05
2023-02-28T17:57:31.158Z,21.87
2023-02-28T18:02:26.744Z,21.17
2023-02-28T18:07:21.210Z,20.55
2023-02-28T18:12:15.134Z,21.10
2023-02-28T18:17:08.094Z,23.65
2023-02-28T18:22:01.590Z,27.13
2023-02-28T18:26:54.732Z,21.00
2023-02-28T18:31:48.315Z,23.05
2023-02-28T18:36:43.029Z,21.83
2023-02-28T18:41:36.335Z,22.80
2023-02-28T18:46:29.573Z,24.42
2023-02-28T18:51:25.615Z,27.77
2023-02-28T18:56:20.840Z,26.00
2023-02-28T19:01:34.741Z,26.33
2023-02-28T19:06:28.366Z,25.55
2023-02-28T19:11:22.384Z,24.73
2023-02-28T19:16:16.687Z,23.35
2023-02-28T19:21:13.843Z,22.85
2023-02-28T19:26:18.366Z,25.27
2023-02-28T19:31:31.668Z,25.33
2023-02-28T19:36:25.285Z,26.63
2023-02-28T19:41:19.729Z,29.35
2023-02-28T19:46:13.134Z,27.73
2023-02-28T19:51:12.924Z,27.50
2023-02-28T19:56:07.735Z,28.30
2023-02-28T20:01:08.757Z,36.42
2023-02-28T20:06:03.674Z,32.83
2023-02-28T20:10:57.439Z,34.55
2023-02-28T20:15:51.664Z,32.75
2023-02-28T20:20:45.056Z,35.03
2023-02-28T20:25:41.196Z,32.47
2023-02-28T20:30:34.080Z,29.35
2023-02-28T20:35:27.624Z,27.90
2023-02-28T20:40:20.746Z,27.58
2023-02-28T20:45:13.169Z,26.80
2023-02-28T20:50:08.152Z,26.85
2023-02-28T20:55:01.828Z,24.85
2023-02-28T20:59:54.916Z,25.77
2023-02-28T21:04:48.812Z,28.10
2023-02-28T21:09:42.929Z,27.58
2023-02-28T21:14:36.160Z,26.63
2023-02-28T21:19:30.240Z,26.77
2023-02-28T21:24:23.223Z,26.85
2023-02-28T21:29:16.588Z,27.65
2023-02-28T21:34:11.756Z,28.15
2023-02-28T21:39:15.379Z,26.35
2023-02-28T21:44:09.166Z,30.27
2023-02-28T21:49:01.807Z,27.38
2023-02-28T21:53:56.329Z,27.67
2023-02-28T21:58:50.105Z,28.48
2023-02-28T22:03:43.358Z,27.23
2023-02-28T22:08:36.593Z,26.35
2023-02-28T22:13:29.620Z,26.35
2023-02-28T22:18:22.435Z,25.58
2023-02-28T22:23:15.296Z,27.83
2023-02-28T22:28:09.067Z,25.20
2023-02-28T22:33:02.324Z,23.75
2023-02-28T22:37:54.835Z,22.63
2023-02-28T22:42:48.696Z,24.40
2023-02-28T22:47:42.871Z,24.35
2023-02-28T22:52:37.153Z,23.15
2023-02-28T22:57:31.364Z,22.95
2023-02-28T23:02:24.738Z,23.10
2023-02-28T23:07:18.666Z,23.55
2023-02-28T23:12:11.662Z,20.67
2023-02-28T23:17:04.002Z,21.70
2023-02-28T23:21:57.737Z,22.25
2023-02-28T23:26:54.694Z,22.25
2023-02-28T23:31:48.756Z,22.05
2023-02-28T23:36:46.677Z,22.02
2023-02-28T23:41:41.070Z,22.35
2023-02-28T23:46:33.748Z,18.92
2023-02-28T23:51:27.366Z,18.75
2023-02-28T23:56:22.386Z,18.05
